Time;durP1;ratioP1;P1;durP2;ratioP2;P2;SDS_P1;SDS_P2;PMS_P1;PMS_P2;Temp;Humidity;BMP_temperature;BMP_pressure;BME280_temperature;BME280_humidity;BME280_pressure;Samples;Min_cycle;Max_cycle;Signal;HPM_P1;HPM_P2
2022/11/14 00:01:09;;;;;;;21.98;14.23;;;;;;;4.15;96.89;101725.75;4976405;28;20047;-78
2022/11/14 00:03:53;;;;;;;20.45;14.73;;;;;;;4.17;96.18;101714.84;4973242;28;20047;-78
2022/11/14 00:06:38;;;;;;;23.55;14.93;;;;;;;4.21;96.67;101718.25;4975936;28;20051;-78
2022/11/14 00:09:25;;;;;;;21.80;14.40;;;;;;;4.20;96.72;101706.19;4976805;28;20525;-78
2022/11/14 00:12:11;;;;;;;25.73;16.38;;;;;;;4.23;96.40;101702.81;4974611;28;20131;-78
2022/11/14 00:14:56;;;;;;;23.00;15.10;;;;;;;4.24;96.49;101709.59;4975220;28;20142;-77
2022/11/14 00:17:41;;;;;;;24.08;15.32;;;;;;;4.22;96.02;101709.97;4975997;28;20519;-77
2022/11/14 00:20:26;;;;;;;25.73;14.88;;;;;;;4.22;96.35;101706.56;4974784;28;20047;-77
2022/11/14 00:23:11;;;;;;;25.65;15.10;;;;;;;4.21;96.16;101705.81;4975561;28;20063;-78
2022/11/14 00:25:57;;;;;;;25.52;15.57;;;;;;;4.20;96.25;101700.91;4976039;28;20115;-76
2022/11/14 00:28:41;;;;;;;27.38;16.63;;;;;;;4.20;96.14;101695.66;4974522;28;20524;-76
2022/11/14 00:31:26;;;;;;;31.27;16.42;;;;;;;4.18;96.23;101701.28;4974853;28;20059;-76
2022/11/14 00:34:11;;;;;;;26.05;16.27;;;;;;;4.16;96.22;101706.16;4975938;28;20103;-76
2022/11/14 00:36:56;;;;;;;29.00;16.65;;;;;;;4.16;96.11;101700.91;4973704;28;20154;-77
2022/11/14 00:39:42;;;;;;;28.55;16.88;;;;;;;4.16;96.22;101703.53;4975090;28;20170;-76
2022/11/14 00:42:27;;;;;;;34.50;16.73;;;;;;;4.15;96.38;101711.81;4960904;28;20051;-76
2022/11/14 00:45:12;;;;;;;28.75;18.20;;;;;;;4.12;96.32;101713.31;4973389;28;20133;-76
2022/11/14 00:47:58;;;;;;;31.45;17.90;;;;;;;4.11;96.23;101713.69;4959848;28;20055;-77
2022/11/14 00:50:43;;;;;;;31.38;18.15;;;;;;;4.07;96.53;101705.00;4960734;28;20530;-77
2022/11/14 00:53:29;;;;;;;29.55;18.13;;;;;;;4.05;96.41;101710.63;4973385;28;20059;-77
2022/11/14 00:56:16;;;;;;;32.17;18.42;;;;;;;4.04;96.59;101698.59;4974469;28;20047;-77
2022/11/14 00:59:54;;;;;;;29.70;18.50;;;;;;;4.03;96.60;101699.72;4974928;28;20118;-77
2022/11/14 01:02:44;;;;;;;29.35;17.17;;;;;;;4.00;96.68;101690.66;5467752;23;20059;-76
2022/11/14 01:05:29;;;;;;;34.00;18.85;;;;;;;3.98;96.69;101684.28;4973256;28;20055;-76
2022/11/14 01:08:16;;;;;;;30.58;19.08;;;;;;;3.94;96.85;101679.00;4988543;28;20172;-77
2022/11/14 01:11:08;;;;;;;32.78;19.02;;;;;;;3.95;96.77;101674.50;4988683;28;20055;-76
2022/11/14 01:13:53;;;;;;;30.83;19.35;;;;;;;3.92;97.11;101667.31;4974784;28;20048;-76
2022/11/14 01:16:38;;;;;;;28.23;18.33;;;;;;;3.90;96.73;101672.97;4981702;28;20137;-77
2022/11/14 01:19:23;;;;;;;33.72;18.73;;;;;;;3.86;96.76;101672.19;4993843;28;20055;-77
2022/11/14 01:22:08;;;;;;;34.42;19.40;;;;;;;3.85;97.05;101660.16;4993861;28;20050;-77
2022/11/14 01:24:54;;;;;;;33.22;19.83;;;;;;;3.83;96.85;101661.63;4992339;28;20055;-77
2022/11/14 01:27:39;;;;;;;33.42;18.90;;;;;;;3.81;97.09;101658.63;4992599;28;20043;-77
2022/11/14 01:30:23;;;;;;;32.50;19.17;;;;;;;3.80;96.97;101651.84;4994295;28;20501;-77
2022/11/14 01:33:09;;;;;;;36.53;18.88;;;;;;;3.80;97.33;101643.94;4994461;28;20058;-77
2022/11/14 01:35:58;;;;;;;32.75;18.90;;;;;;;3.78;97.28;101640.91;4993084;28;20479;-77
2022/11/14 01:38:44;;;;;;;32.50;19.52;;;;;;;3.76;97.43;101630.00;4994426;28;20491;-77
2022/11/14 01:41:29;;;;;;;31.98;18.85;;;;;;;3.74;97.53;101634.88;4994852;28;20082;-77
2022/11/14 01:44:16;;;;;;;36.00;20.25;;;;;;;3.73;97.30;101625.47;4993351;28;20046;-76
2022/11/14 01:47:01;;;;;;;31.38;18.38;;;;;;;3.69;97.08;101623.56;4992113;28;20050;-77
2022/11/14 01:49:49;;;;;;;34.08;20.05;;;;;;;3.66;97.50;101624.31;4994083;28;20095;-77
2022/11/14 01:52:38;;;;;;;34.42;20.35;;;;;;;3.65;97.70;101622.81;4993006;28;20530;-76
2022/11/14 01:55:22;;;;;;;40.88;19.77;;;;;;;3.63;97.54;101617.16;4993853;28;20054;-76
2022/11/14 01:58:09;;;;;;;38.65;20.75;;;;;;;3.61;97.88;101616.00;4994689;28;20055;-76
2022/11/14 02:00:56;;;;;;;41.25;22.05;;;;;;;3.59;98.25;101603.25;4991137;28;20059;-77
2022/11/14 02:03:44;;;;;;;38.05;21.45;;;;;;;3.58;98.17;101599.09;4993515;28;20055;-77
2022/11/14 02:06:31;;;;;;;40.10;21.92;;;;;;;3.55;98.18;101599.84;4994591;28;20053;-77
2022/11/14 02:09:16;;;;;;;42.25;21.08;;;;;;;3.55;98.37;101594.56;4992850;28;20046;-76
2022/11/14 02:12:04;;;;;;;36.47;20.73;;;;;;;3.54;98.50;101589.69;4990308;28;20046;-77
2022/11/14 02:14:54;;;;;;;46.72;22.35;;;;;;;3.52;98.55;101591.91;4992161;28;20059;-76
2022/11/14 02:17:39;;;;;;;36.58;21.35;;;;;;;3.47;98.59;101587.75;4992430;28;20507;-76
2022/11/14 02:20:27;;;;;;;40.95;22.75;;;;;;;3.46;98.62;101575.72;4992675;28;20058;-77
2022/11/14 02:23:12;;;;;;;36.17;20.17;;;;;;;3.43;98.44;101587.00;4990858;28;20411;-76
2022/11/14 02:25:58;;;;;;;40.22;21.20;;;;;;;3.42;98.62;101587.34;4992194;28;20051;-78
2022/11/14 02:28:43;;;;;;;40.53;22.17;;;;;;;3.39;98.90;101580.19;4993141;28;20059;-78
2022/11/14 02:31:28;;;;;;;36.75;20.75;;;;;;;3.38;98.87;101576.06;4994168;28;20054;-77
2022/11/14 02:34:15;;;;;;;40.30;22.35;;;;;;;3.35;98.94;101575.66;4990828;28;20145;-77
2022/11/14 02:37:00;;;;;;;40.55;22.77;;;;;;;3.34;98.91;101576.78;4992818;28;20055;-75
2022/11/14 02:39:45;;;;;;;39.25;21.83;;;;;;;3.32;99.07;101571.13;4993496;28;20518;-78
2022/11/14 02:42:30;;;;;;;38.58;21.13;;;;;;;3.30;98.97;101565.50;4992303;28;20503;-78
2022/11/14 02:45:15;;;;;;;40.88;21.55;;;;;;;3.29;99.19;101571.13;4992582;28;20051;-78
2022/11/14 02:48:00;;;;;;;38.40;21.60;;;;;;;3.27;99.36;101568.09;4978619;28;20051;-78
2022/11/14 02:50:47;;;;;;;40.58;22.25;;;;;;;3.24;99.13;101569.59;4976936;28;20074;-77
2022/11/14 02:53:32;;;;;;;38.78;21.65;;;;;;;3.23;99.36;101569.97;4992803;28;20055;-78
2022/11/14 02:56:17;;;;;;;40.53;22.23;;;;;;;3.21;99.24;101562.44;4993367;28;20067;-78
2022/11/14 02:59:03;;;;;;;39.70;22.00;;;;;;;3.18;99.23;101562.44;4991053;28;20051;-78
2022/11/14 03:01:48;;;;;;;40.17;22.25;;;;;;;3.15;99.43;101563.19;4992013;28;20137;-78
2022/11/14 03:04:33;;;;;;;42.85;20.92;;;;;;;3.12;99.43;101559.41;4993526;28;20062;-78
2022/11/14 03:07:18;;;;;;;39.88;21.92;;;;;;;3.11;99.52;101565.03;4991867;28;20076;-77
2022/11/14 03:10:03;;;;;;;40.08;22.02;;;;;;;3.09;99.36;101559.38;4977398;28;20536;-77
2022/11/14 03:12:55;;;;;;;41.20;21.95;;;;;;;3.06;99.38;101560.88;4992276;28;20051;-77
2022/11/14 03:15:40;;;;;;;42.03;22.80;;;;;;;3.04;99.44;101562.34;4991320;28;20047;-77
2022/11/14 03:18:25;;;;;;;37.38;20.92;;;;;;;3.02;99.70;101549.56;4992467;28;20055;-78
2022/11/14 03:21:16;;;;;;;44.80;22.00;;;;;;;3.01;99.46;101540.16;4993188;28;20058;-78
2022/11/14 03:24:01;;;;;;;41.42;21.70;;;;;;;2.98;99.61;101540.91;4991048;28;20055;-77
2022/11/14 03:26:46;;;;;;;37.05;20.27;;;;;;;2.94;99.66;101532.97;4991676;28;20055;-78
2022/11/14 03:29:31;;;;;;;37.75;20.95;;;;;;;2.91;99.52;101533.72;4994626;28;20051;-77
2022/11/14 03:32:16;;;;;;;39.97;21.98;;;;;;;2.89;99.63;101535.97;4994873;28;20442;-78
2022/11/14 03:35:01;;;;;;;44.42;21.95;;;;;;;2.88;99.77;101542.34;4995046;28;20145;-77
2022/11/14 03:37:46;;;;;;;39.95;20.85;;;;;;;2.86;100.00;101531.44;4996014;28;20054;-77
2022/11/14 03:40:31;;;;;;;38.78;21.45;;;;;;;2.86;100.00;101522.78;4979673;28;20412;-77
2022/11/14 03:43:18;;;;;;;36.38;20.23;;;;;;;2.85;100.00;101519.41;4994811;28;20082;-77
2022/11/14 03:46:04;;;;;;;46.33;20.60;;;;;;;2.82;100.00;101512.25;4995927;28;20110;-77
2022/11/14 03:48:49;;;;;;;39.78;21.52;;;;;;;2.80;99.61;101509.22;4993869;28;20585;-77
2022/11/14 03:51:34;;;;;;;40.05;19.98;;;;;;;2.79;100.00;101512.25;4994904;28;20039;-78
2022/11/14 03:54:19;;;;;;;39.55;20.40;;;;;;;2.76;100.00;101519.00;4995919;28;20063;-77
2022/11/14 03:57:04;;;;;;;42.70;20.98;;;;;;;2.74;99.97;101509.97;4993271;28;20451;-78
2022/11/14 03:59:49;;;;;;;42.28;22.00;;;;;;;2.73;100.00;101503.19;4994351;28;20054;-77
2022/11/14 04:02:34;;;;;;;43.22;21.42;;;;;;;2.72;100.00;101502.44;4995376;28;20050;-77
2022/11/14 04:05:19;;;;;;;36.88;20.40;;;;;;;2.70;100.00;101499.41;4993651;28;20051;-77
2022/11/14 04:08:05;;;;;;;40.90;21.58;;;;;;;2.67;100.00;101500.91;4994255;28;20055;-77
2022/11/14 04:10:50;;;;;;;38.25;20.88;;;;;;;2.65;100.00;101505.03;4994762;28;20512;-77
2022/11/14 04:13:35;;;;;;;40.47;20.67;;;;;;;2.61;99.79;101496.34;4996272;28;20054;-77
2022/11/14 04:16:20;;;;;;;35.80;20.15;;;;;;;2.57;99.86;101493.69;4994113;28;20054;-78
2022/11/14 04:19:05;;;;;;;37.50;19.42;;;;;;;2.52;99.56;101491.41;4994191;28;20062;-77
2022/11/14 04:21:50;;;;;;;48.28;21.98;;;;;;;2.53;99.70;101494.78;4995872;28;20046;-76
2022/11/14 04:24:35;;;;;;;39.53;20.02;;;;;;;2.52;99.82;101490.66;4993365;28;20051;-76
2022/11/14 04:27:20;;;;;;;35.13;19.95;;;;;;;2.49;99.59;101486.88;4994707;28;20134;-76
2022/11/14 04:30:06;;;;;;;37.35;19.65;;;;;;;2.46;99.57;101487.59;4994262;28;20059;-76
2022/11/14 04:32:51;;;;;;;36.10;18.13;;;;;;;2.44;99.06;101483.84;4993743;28;20057;-77
2022/11/14 04:35:36;;;;;;;40.65;19.60;;;;;;;2.38;99.04;101485.31;4994737;28;20535;-76
2022/11/14 04:38:21;;;;;;;39.33;19.65;;;;;;;2.38;99.19;101475.56;4995452;28;20558;-76
2022/11/14 04:41:06;;;;;;;35.45;19.45;;;;;;;2.32;99.05;101474.38;4992440;28;20051;-77
2022/11/14 04:43:50;;;;;;;36.33;19.17;;;;;;;2.28;99.04;101469.09;4994403;28;20051;-76
2022/11/14 04:46:35;;;;;;;40.22;19.95;;;;;;;2.26;99.04;101468.72;4995503;28;20055;-77
2022/11/14 04:49:20;;;;;;;37.33;18.92;;;;;;;2.25;98.96;101466.44;4993603;28;20491;-76
2022/11/14 04:52:05;;;;;;;39.40;20.85;;;;;;;2.23;99.29;101466.06;4974171;28;20441;-78
2022/11/14 04:54:50;;;;;;;34.35;17.98;;;;;;;2.22;99.56;101461.94;4974462;28;20498;-76
2022/11/14 04:57:35;;;;;;;40.28;19.08;;;;;;;2.21;99.39;101449.91;4973815;28;20051;-76
2022/11/14 05:00:21;;;;;;;39.70;19.90;;;;;;;2.18;99.30;101453.25;4974718;28;20075;-77
2022/11/14 05:03:07;;;;;;;41.58;19.02;;;;;;;2.16;98.96;101447.63;4974613;28;20515;-78
2022/11/14 05:05:52;;;;;;;33.60;17.30;;;;;;;2.13;98.88;101449.09;4973402;28;20526;-78
2022/11/14 05:08:37;;;;;;;37.65;18.45;;;;;;;2.10;98.86;101444.56;4974073;28;20047;-76
2022/11/14 05:11:22;;;;;;;34.22;18.05;;;;;;;2.07;99.11;101437.41;4975075;28;20047;-76
2022/11/14 05:14:13;;;;;;;40.17;19.48;;;;;;;2.02;98.85;101429.88;4973719;28;20636;-77
2022/11/14 05:16:58;;;;;;;39.92;18.92;;;;;;;2.03;99.06;101438.50;4974218;28;20486;-77
2022/11/14 05:19:43;;;;;;;30.60;17.75;;;;;;;2.01;99.31;101433.59;4975572;28;20096;-78
2022/11/14 05:22:28;;;;;;;39.38;18.92;;;;;;;2.01;99.24;101428.34;4972854;28;20055;-78
2022/11/14 05:25:13;;;;;;;37.05;19.75;;;;;;;2.00;99.73;101426.84;4974224;28;20055;-78
2022/11/14 05:27:58;;;;;;;42.47;19.17;;;;;;;1.99;99.97;101431.38;4974898;28;20051;-78
2022/11/14 05:30:43;;;;;;;40.60;18.27;;;;;;;1.97;99.86;101428.34;4974036;28;20504;-78
2022/11/14 05:33:29;;;;;;;34.90;18.25;;;;;;;1.96;99.96;101426.09;4973570;28;20078;-78
2022/11/14 05:36:15;;;;;;;37.65;18.08;;;;;;;1.94;100.00;101425.69;4975307;28;20060;-78
2022/11/14 05:39:01;;;;;;;36.17;17.13;;;;;;;1.95;100.00;101424.59;4975611;28;20115;-77
2022/11/14 05:41:46;;;;;;;39.65;19.40;;;;;;;1.95;100.00;101427.97;4974451;28;20047;-79
2022/11/14 05:44:31;;;;;;;34.88;18.15;;;;;;;1.94;100.00;101426.44;4974947;28;20079;-79
2022/11/14 05:47:16;;;;;;;36.05;17.65;;;;;;;1.94;100.00;101428.31;4976237;28;20108;-79
2022/11/14 05:50:02;;;;;;;36.97;16.90;;;;;;;1.93;100.00;101426.81;4974159;28;20142;-79
2022/11/14 05:52:48;;;;;;;39.03;18.17;;;;;;;1.92;100.00;101425.31;4973592;28;20621;-78
2022/11/14 05:55:33;;;;;;;35.38;17.30;;;;;;;1.92;100.00;101420.06;4975694;28;20063;-79
2022/11/14 05:58:18;;;;;;;34.15;17.77;;;;;;;1.89;100.00;101418.16;4973785;28;20051;-79
2022/11/14 06:01:09;;;;;;;34.47;16.60;;;;;;;1.87;100.00;101418.50;4974988;28;20051;-78
2022/11/14 06:03:54;;;;;;;38.13;17.50;;;;;;;1.86;100.00;101413.63;4975155;28;20501;-79
2022/11/14 06:06:39;;;;;;;37.40;16.23;;;;;;;1.84;100.00;101415.84;4985594;28;20058;-78
2022/11/14 06:09:24;;;;;;;36.05;16.75;;;;;;;1.82;100.00;101413.59;4993965;28;20419;-78
2022/11/14 06:12:09;;;;;;;37.58;17.77;;;;;;;1.83;100.00;101417.72;4994991;28;20136;-78
2022/11/14 06:14:54;;;;;;;33.78;17.20;;;;;;;1.81;100.00;101404.22;4993065;28;20115;-78
2022/11/14 06:17:39;;;;;;;36.33;18.00;;;;;;;1.78;100.00;101406.81;4993771;28;20480;-76
2022/11/14 06:20:24;;;;;;;37.58;16.42;;;;;;;1.75;100.00;101403.03;4994842;28;20043;-79
2022/11/14 06:23:09;;;;;;;34.85;16.33;;;;;;;1.70;100.00;101402.59;4992956;28;20487;-77
2022/11/14 06:26:01;;;;;;;29.77;15.52;;;;;;;1.67;100.00;101402.22;4993645;28;20056;-76
2022/11/14 06:28:48;;;;;;;35.83;16.55;;;;;;;1.66;100.00;101394.69;4994566;28;20046;-78
2022/11/14 06:31:33;;;;;;;32.75;16.95;;;;;;;1.63;100.00;101409.28;4992745;28;20050;-77
2022/11/14 06:34:17;;;;;;;36.03;17.02;;;;;;;1.63;100.00;101401.41;4993659;28;20055;-77
2022/11/14 06:37:04;;;;;;;36.72;16.77;;;;;;;1.62;100.00;101407.78;4993235;28;20059;-77
2022/11/14 06:39:49;;;;;;;31.73;16.40;;;;;;;1.62;100.00;101413.03;4992958;28;20491;-76
2022/11/14 06:42:33;;;;;;;34.30;16.70;;;;;;;1.58;99.90;101412.28;4992254;28;20083;-77
2022/11/14 06:45:18;;;;;;;37.13;16.13;;;;;;;1.56;99.92;101419.75;4994266;28;20055;-76
2022/11/14 06:48:03;;;;;;;30.05;16.08;;;;;;;1.54;99.97;101413.34;4991842;28;20047;-77
2022/11/14 06:50:53;;;;;;;32.55;16.15;;;;;;;1.52;99.87;101416.34;4992755;28;20046;-76
2022/11/14 06:53:39;;;;;;;34.20;15.50;;;;;;;1.50;100.00;101417.81;4994162;28;20506;-77
2022/11/14 06:56:24;;;;;;;30.92;17.10;;;;;;;1.50;100.00;101423.06;4991992;28;20130;-78
2022/11/14 06:59:09;;;;;;;24.95;14.40;;;;;;;1.48;99.91;101412.16;4992935;28;20059;-77
2022/11/14 07:01:54;;;;;;;29.25;15.40;;;;;;;1.44;99.77;101414.75;4993522;28;20058;-78
2022/11/14 07:04:39;;;;;;;29.40;14.85;;;;;;;1.43;99.74;101418.50;4990445;28;20099;-78
2022/11/14 07:07:24;;;;;;;34.15;15.10;;;;;;;1.44;99.80;101419.25;4992925;28;20097;-80
2022/11/14 07:10:09;;;;;;;30.67;16.02;;;;;;;1.42;99.72;101416.97;4978830;28;20106;-78
2022/11/14 07:12:53;;;;;;;36.70;16.33;;;;;;;1.43;99.44;101404.63;4991976;28;20504;-78
2022/11/14 07:15:39;;;;;;;27.52;15.07;;;;;;;1.41;99.57;101415.47;4992471;28;20054;-77
2022/11/14 07:18:24;;;;;;;34.72;17.10;;;;;;;1.43;99.48;101422.97;4993605;28;20046;-78
2022/11/14 07:21:12;;;;;;;33.33;16.42;;;;;;;1.44;99.72;101422.63;4991768;28;20055;-78
2022/11/14 07:23:57;;;;;;;30.80;15.80;;;;;;;1.45;99.65;101421.50;4992408;28;20063;-78
2022/11/14 07:26:42;;;;;;;32.40;16.02;;;;;;;1.46;99.99;101430.91;4993158;28;20055;-75
2022/11/14 07:29:27;;;;;;;33.42;15.55;;;;;;;1.48;100.00;101439.16;4992516;28;20058;-78
2022/11/14 07:32:12;;;;;;;25.27;15.02;;;;;;;1.51;100.00;101441.06;4978319;28;20125;-76
2022/11/14 07:34:57;;;;;;;30.00;15.48;;;;;;;1.55;100.00;101434.00;4977383;28;20051;-75
2022/11/14 07:37:46;;;;;;;29.13;15.45;;;;;;;1.57;99.96;101426.50;4993635;28;20197;-76
2022/11/14 07:40:31;;;;;;;27.92;15.18;;;;;;;1.61;100.00;101429.13;4977248;28;20047;-76
2022/11/14 07:43:16;;;;;;;32.00;15.65;;;;;;;1.64;100.00;101428.41;4992882;28;20054;-76
2022/11/14 07:46:03;;;;;;;31.73;15.82;;;;;;;1.70;100.00;101420.97;4994364;28;20050;-76
2022/11/14 07:48:48;;;;;;;32.65;16.65;;;;;;;1.75;100.00;101425.91;4991345;28;20051;-76
2022/11/14 07:51:33;;;;;;;35.55;15.77;;;;;;;1.78;100.00;101415.44;4992889;28;20051;-76
2022/11/14 07:54:18;;;;;;;32.42;16.58;;;;;;;1.83;100.00;101424.84;4978667;28;20059;-76
2022/11/14 07:57:03;;;;;;;31.42;16.70;;;;;;;1.88;100.00;101411.38;4976832;28;20055;-76
2022/11/14 07:59:48;;;;;;;33.30;16.35;;;;;;;1.91;100.00;101413.28;4977575;28;20051;-75
2022/11/14 08:02:33;;;;;;;33.53;17.50;;;;;;;1.94;100.00;101408.06;4992357;28;20051;-77
2022/11/14 08:05:18;;;;;;;34.60;17.27;;;;;;;1.97;100.00;101396.84;4992149;28;20062;-76
2022/11/14 08:08:04;;;;;;;33.28;15.82;;;;;;;2.00;100.00;101398.72;4992406;28;20134;-77
2022/11/14 08:10:49;;;;;;;32.50;15.85;;;;;;;2.04;100.00;101398.75;4977839;28;20074;-77
2022/11/14 08:13:34;;;;;;;33.63;17.02;;;;;;;2.09;100.00;101395.03;4991644;28;20051;-78
2022/11/14 08:16:19;;;;;;;31.63;16.55;;;;;;;2.12;100.00;101395.06;4994578;28;20059;-77
2022/11/14 08:19:04;;;;;;;34.88;17.00;;;;;;;2.19;100.00;101389.84;4996160;28;20058;-77
2022/11/14 08:21:49;;;;;;;29.40;15.90;;;;;;;2.23;100.00;101393.25;4995249;28;20051;-76
2022/11/14 08:24:34;;;;;;;28.45;16.67;;;;;;;2.27;100.00;101394.03;4995276;28;20149;-76
2022/11/14 08:27:19;;;;;;;35.60;16.25;;;;;;;2.32;100.00;101393.69;4981096;28;20500;-76
2022/11/14 08:30:04;;;;;;;31.13;16.17;;;;;;;2.37;100.00;101379.47;4994218;28;20051;-77
2022/11/14 08:32:49;;;;;;;35.40;16.85;;;;;;;2.44;100.00;101378.72;4994510;28;20051;-75
2022/11/14 08:35:35;;;;;;;35.17;16.08;;;;;;;2.45;100.00;101380.97;4995491;28;20050;-75
2022/11/14 08:38:20;;;;;;;28.60;16.10;;;;;;;2.50;100.00;101380.63;4994003;28;20055;-76
2022/11/14 08:41:05;;;;;;;31.52;16.50;;;;;;;2.56;100.00;101386.28;4994913;28;20059;-75
2022/11/14 08:43:50;;;;;;;28.90;15.18;;;;;;;2.60;100.00;101387.81;4995671;28;20926;-75
2022/11/14 08:46:35;;;;;;;33.85;16.92;;;;;;;2.65;100.00;101381.47;4993381;28;20043;-75
2022/11/14 08:49:19;;;;;;;34.78;16.70;;;;;;;2.69;99.96;101374.34;4994814;28;20047;-76
2022/11/14 08:52:05;;;;;;;31.08;15.82;;;;;;;2.73;100.00;101369.84;4980883;28;20498;-75
2022/11/14 08:54:49;;;;;;;28.60;16.02;;;;;;;2.80;99.74;101361.97;4982178;28;20047;-76
2022/11/14 08:57:34;;;;;;;27.08;15.95;;;;;;;2.87;99.64;101361.25;4994445;28;20099;-75
2022/11/14 09:00:20;;;;;;;32.92;15.18;;;;;;;2.94;99.66;101363.91;4994817;28;20042;-76
2022/11/14 09:03:09;;;;;;;28.80;15.77;;;;;;;2.99;99.51;101364.28;4995656;28;20488;-75
2022/11/14 09:05:54;;;;;;;30.13;16.15;;;;;;;3.06;99.39;101366.19;4994316;28;20415;-75
2022/11/14 09:08:39;;;;;;;30.92;15.68;;;;;;;3.11;99.29;101357.94;4995246;28;20471;-76
2022/11/14 09:11:24;;;;;;;30.67;14.43;;;;;;;3.21;99.43;101366.97;4981151;28;20054;-76
2022/11/14 09:14:09;;;;;;;26.02;15.50;;;;;;;3.27;99.52;101363.59;4994308;28;20059;-76
2022/11/14 09:16:54;;;;;;;28.67;16.70;;;;;;;3.34;98.91;101360.22;4994746;28;20499;-76
2022/11/14 09:19:39;;;;;;;24.98;15.35;;;;;;;3.40;98.73;101356.09;4995923;28;20051;-76
2022/11/14 09:22:23;;;;;;;28.83;15.75;;;;;;;3.46;98.54;101351.97;4979003;28;20091;-76
2022/11/14 09:25:08;;;;;;;28.10;15.07;;;;;;;3.54;98.52;101347.47;4994708;28;20051;-76
2022/11/14 09:27:54;;;;;;;28.05;15.30;;;;;;;3.62;98.39;101348.94;4994584;28;20542;-76
2022/11/14 09:30:40;;;;;;;24.55;14.93;;;;;;;3.70;98.48;101339.91;4989066;28;20054;-75
2022/11/14 09:33:25;;;;;;;28.88;15.95;;;;;;;3.80;98.47;101347.06;4994135;28;20091;-75
2022/11/14 09:36:14;;;;;;;30.13;16.17;;;;;;;3.88;98.41;101339.91;4994914;28;20054;-75
2022/11/14 09:38:59;;;;;;;25.63;15.60;;;;;;;3.98;98.48;101341.78;4977307;28;104475;-75
2022/11/14 09:42:12;;;;;;;30.05;15.60;;;;;;;4.08;98.63;101338.38;4994554;28;20126;-75
2022/11/14 09:45:05;;;;;;;34.03;14.90;;;;;;;4.18;98.46;101337.59;4996418;28;20055;-76
2022/11/14 09:48:05;;;;;;;25.48;14.38;;;;;;;4.30;98.50;101331.91;4993954;28;20134;-75
2022/11/14 09:51:03;;;;;;;30.00;15.87;;;;;;;4.46;98.42;101330.72;4994688;28;20055;-75
2022/11/14 13:07:36;;;;;;;33.17;19.70;;;;;;;7.54;86.93;101207.66;6228872;22;1225824;-78
2022/11/14 13:10:26;;;;;;;33.58;19.10;;;;;;;7.55;87.03;101208.41;6258840;22;20429;-81
2022/11/14 13:22:43;;;;;;;28.48;17.90;;;;;;;7.35;87.48;101184.53;6281498;22;20024;-82
2022/11/14 13:25:28;;;;;;;25.20;18.67;;;;;;;7.32;87.43;101188.00;6282160;22;20419;-79
2022/11/14 13:28:35;;;;;;;30.90;18.85;;;;;;;7.31;87.51;101175.91;6282290;22;20020;-81
2022/11/14 13:31:32;;;;;;;33.03;20.38;;;;;;;7.30;87.47;101163.81;6282157;22;20028;-80
2022/11/14 13:34:32;;;;;;;31.88;20.63;;;;;;;7.30;87.47;101155.88;6282399;22;20020;-80
2022/11/14 13:37:51;;;;;;;31.90;19.88;;;;;;;7.27;87.46;101157.44;6281558;22;20047;-80
2022/11/14 13:40:45;;;;;;;31.35;18.45;;;;;;;7.26;87.57;101157.84;6280785;22;20047;-80
2022/11/14 13:43:58;;;;;;;35.72;19.45;;;;;;;7.25;87.61;101149.13;6282023;22;20028;-81
2022/11/14 13:47:12;;;;;;;29.95;19.10;;;;;;;7.23;87.73;101140.09;6282346;22;20028;-80
2022/11/14 13:50:19;;;;;;;31.15;20.23;;;;;;;7.22;87.73;101135.97;6281564;22;20056;-79
2022/11/14 13:53:14;;;;;;;29.70;19.52;;;;;;;7.21;87.52;101142.41;6282152;22;20020;-81
2022/11/14 13:56:05;;;;;;;29.95;19.27;;;;;;;7.19;87.27;101137.53;6281629;22;20475;-80
2022/11/14 13:59:19;;;;;;;33.60;20.33;;;;;;;7.22;87.45;101122.72;6282254;22;20024;-80
2022/11/14 14:02:39;;;;;;;30.63;19.35;;;;;;;7.27;87.40;101115.06;6258700;22;20357;-79
2022/11/14 14:05:45;;;;;;;32.83;19.25;;;;;;;7.27;87.08;101132.84;6281381;22;20114;-79
2022/11/14 14:08:56;;;;;;;33.92;19.95;;;;;;;7.28;86.96;101139.63;6281267;22;20024;-79
2022/11/14 14:11:53;;;;;;;29.77;19.88;;;;;;;7.28;86.94;101145.69;6282095;22;20020;-79
2022/11/14 14:14:53;;;;;;;29.58;19.42;;;;;;;7.29;86.72;101138.47;6281826;22;20020;-79
2022/11/14 14:17:42;;;;;;;31.58;20.27;;;;;;;7.27;86.65;101144.19;6281862;22;20020;-79
2022/11/14 14:20:44;;;;;;;29.05;19.10;;;;;;;7.25;86.90;101145.75;6280760;22;20024;-79
2022/11/14 14:24:03;;;;;;;31.23;20.13;;;;;;;7.23;87.21;101150.69;6281361;22;20107;-79
2022/11/14 14:27:01;;;;;;;33.10;19.50;;;;;;;7.17;87.33;101144.41;6278317;22;20024;-79
2022/11/14 14:30:17;;;;;;;35.65;20.60;;;;;;;7.18;87.20;101153.84;6281450;22;20099;-80
2022/11/14 14:33:10;;;;;;;36.25;20.45;;;;;;;7.15;87.35;101152.00;6281440;22;20028;-79
2022/11/14 14:35:56;;;;;;;34.95;21.55;;;;;;;7.14;87.00;101142.56;6281598;22;20075;-79
2022/11/14 14:38:41;;;;;;;38.28;22.65;;;;;;;7.15;87.78;101144.06;6281902;22;20016;-79
2022/11/14 14:41:30;;;;;;;39.42;23.38;;;;;;;7.12;87.79;101137.66;6281770;22;20024;-79
2022/11/14 14:44:23;;;;;;;42.67;24.88;;;;;;;7.09;87.90;101132.44;6281549;22;20031;-80
2022/11/14 14:47:29;;;;;;;41.85;24.85;;;;;;;7.08;88.16;101129.03;6281798;22;20020;-79
2022/11/14 14:50:25;;;;;;;41.55;24.15;;;;;;;7.06;88.40;101128.69;6281773;22;20385;-79
2022/11/14 14:53:37;;;;;;;43.22;24.83;;;;;;;7.05;88.30;101119.25;6281875;22;20021;-79
2022/11/14 14:56:24;;;;;;;40.40;23.95;;;;;;;7.02;88.39;101118.16;6281745;22;20032;-79
2022/11/14 14:59:21;;;;;;;45.35;24.10;;;;;;;7.05;88.42;101110.56;6258867;22;20413;-79
2022/11/14 15:02:17;;;;;;;42.50;24.00;;;;;;;7.03;88.29;101106.44;6281921;22;20020;-79
2022/11/14 15:05:02;;;;;;;43.47;23.77;;;;;;;6.95;88.30;101094.47;6281452;22;20028;-80
2022/11/14 15:07:48;;;;;;;43.13;22.88;;;;;;;6.89;88.50;101106.66;6281173;22;20035;-78
2022/11/14 15:10:34;;;;;;;40.60;23.08;;;;;;;6.88;88.93;101107.06;6281004;22;20020;-79
2022/11/14 15:13:19;;;;;;;39.03;22.50;;;;;;;6.87;88.87;101113.50;6281315;22;20024;-79
2022/11/14 15:16:06;;;;;;;38.10;22.13;;;;;;;6.86;89.11;101104.06;6281067;22;20020;-79
2022/11/14 15:18:53;;;;;;;38.53;23.13;;;;;;;6.88;88.96;101107.81;6280737;22;20028;-79
2022/11/14 15:21:38;;;;;;;39.30;22.13;;;;;;;6.89;89.30;101101.38;6282515;22;20107;-79
2022/11/14 15:24:23;;;;;;;40.13;21.38;;;;;;;6.90;89.00;101107.41;6282356;22;20028;-79
2022/11/14 15:27:17;;;;;;;43.08;22.05;;;;;;;6.88;89.21;101107.81;6259804;22;20056;-79
2022/11/14 15:30:06;;;;;;;34.53;21.60;;;;;;;6.88;89.17;101107.06;6282556;22;20024;-79
2022/11/14 15:32:57;;;;;;;33.70;21.27;;;;;;;6.86;89.39;101107.47;6281918;22;20481;-79
2022/11/14 15:35:42;;;;;;;35.03;20.65;;;;;;;6.85;89.49;101095.38;6259770;22;20524;-80
2022/11/14 15:38:27;;;;;;;42.05;21.20;;;;;;;6.83;89.54;101091.66;6282559;22;20040;-79
2022/11/14 15:41:32;;;;;;;35.60;19.92;;;;;;;6.82;89.94;101090.16;6282711;22;20024;-78
2022/11/14 15:44:31;;;;;;;41.38;20.90;;;;;;;6.83;89.82;101083.72;6282718;22;20023;-79
2022/11/14 15:47:35;;;;;;;33.20;19.88;;;;;;;6.82;89.70;101079.56;6282358;22;20054;-78
2022/11/14 15:50:30;;;;;;;39.03;20.27;;;;;;;6.82;89.79;101082.97;6282479;22;20024;-79
2022/11/14 15:53:22;;;;;;;33.20;20.65;;;;;;;6.82;89.94;101077.66;6282812;22;20032;-78
2022/11/14 15:56:10;;;;;;;34.47;20.65;;;;;;;6.81;89.88;101091.31;6282701;22;20556;-80
2022/11/14 15:58:55;;;;;;;37.53;20.98;;;;;;;6.78;90.14;101087.59;6282920;22;20449;-82
2022/11/14 16:01:42;;;;;;;39.30;21.00;;;;;;;6.76;90.20;101087.25;6281987;22;20115;-79
2022/11/14 16:04:32;;;;;;;36.42;20.30;;;;;;;6.73;90.20;101082.78;6282416;22;20075;-80
2022/11/14 16:07:18;;;;;;;38.30;20.52;;;;;;;6.70;90.44;101086.22;6282486;22;20063;-80
2022/11/14 16:10:13;;;;;;;34.60;21.10;;;;;;;6.68;90.70;101088.53;6259914;22;20024;-78
2022/11/14 16:12:58;;;;;;;38.17;20.67;;;;;;;6.67;90.57;101092.31;6282659;22;20020;-83